Time;durP1;ratioP1;P1;durP2;ratioP2;P2;SDS_P1;SDS_P2;PMS_P1;PMS_P2;Temp;Humidity;BMP_temperature;BMP_pressure;BME280_temperature;BME280_humidity;BME280_pressure;Samples;Min_cycle;Max_cycle;Signal;HPM_P1;HPM_P2
2022/12/04 00:02:33;;;;;;;74.50;25.75;;;;;;;-0.74;100.00;101213.22;6310529;28;20043;-89
2022/12/04 00:05:35;;;;;;;62.88;23.83;;;;;;;-0.80;100.00;101193.81;6314226;28;20453;-89
2022/12/04 00:08:38;;;;;;;63.50;24.17;;;;;;;-0.77;100.00;101190.38;6312124;28;20040;-88
2022/12/04 00:11:40;;;;;;;68.47;25.50;;;;;;;-0.75;100.00;101192.03;6310608;28;20153;-89
2022/12/04 00:14:42;;;;;;;61.22;24.27;;;;;;;-0.80;100.00;101193.00;6308296;28;20083;-89
2022/12/04 00:18:03;;;;;;;63.05;24.23;;;;;;;-0.81;100.00;101191.34;6311720;28;20131;-89
2022/12/04 00:21:07;;;;;;;63.90;24.10;;;;;;;-0.83;100.00;101193.06;6310778;28;20051;-89
2022/12/04 00:24:09;;;;;;;75.85;26.33;;;;;;;-0.83;100.00;101186.28;6300444;28;20474;-89
2022/12/04 00:27:11;;;;;;;65.72;24.08;;;;;;;-0.80;100.00;101188.75;6315246;28;20039;-89
2022/12/04 00:30:12;;;;;;;64.72;23.60;;;;;;;-0.86;100.00;101196.50;6306181;28;20044;-89
2022/12/04 00:33:14;;;;;;;62.60;23.80;;;;;;;-0.88;100.00;101201.63;6308105;28;20047;-89
2022/12/04 00:36:19;;;;;;;58.58;22.95;;;;;;;-0.90;100.00;101194.91;6310847;28;20447;-89
2022/12/04 00:39:21;;;;;;;55.50;21.85;;;;;;;-0.90;100.00;101190.63;6314653;28;20070;-89
2022/12/04 00:42:22;;;;;;;61.72;22.65;;;;;;;-0.91;100.00;101193.22;6309211;28;20498;-89
2022/12/04 00:45:24;;;;;;;61.72;25.35;;;;;;;-0.90;100.00;101182.19;6310139;28;20036;-88
2022/12/04 00:48:26;;;;;;;58.92;22.77;;;;;;;-0.92;100.00;101179.69;6307093;28;20130;-89
2022/12/04 00:51:29;;;;;;;68.03;24.05;;;;;;;-0.95;100.00;101181.44;6310283;28;20072;-89
2022/12/04 00:54:31;;;;;;;62.38;23.30;;;;;;;-0.90;100.00;101182.19;6309880;28;20478;-89
2022/12/04 00:57:32;;;;;;;64.93;23.52;;;;;;;-0.87;100.00;101172.81;6313363;28;20071;-89
2022/12/04 01:00:36;;;;;;;58.17;23.05;;;;;;;-0.88;100.00;101180.47;6311114;28;20639;-89
2022/12/04 01:03:38;;;;;;;66.05;23.27;;;;;;;-0.89;100.00;101179.63;6290713;28;20108;-89
2022/12/04 01:06:40;;;;;;;54.38;22.98;;;;;;;-0.86;100.00;101181.25;6304759;28;20058;-89
2022/12/04 01:09:41;;;;;;;64.05;24.63;;;;;;;-0.84;100.00;101182.06;6302473;28;20035;-89
2022/12/04 01:12:43;;;;;;;60.15;22.73;;;;;;;-0.85;100.00;101177.84;6310719;28;20112;-89
2022/12/04 01:15:46;;;;;;;68.88;23.52;;;;;;;-0.87;100.00;101185.53;6312525;28;20051;-89
2022/12/04 01:18:48;;;;;;;63.80;23.65;;;;;;;-0.85;100.00;101177.00;6307529;28;20158;-89
2022/12/04 01:21:50;;;;;;;64.80;24.15;;;;;;;-0.80;100.00;101181.13;6310997;28;20516;-89
2022/12/04 01:24:55;;;;;;;66.13;24.27;;;;;;;-0.81;100.00;101181.19;6309625;28;20402;-89
2022/12/04 01:27:57;;;;;;;70.60;22.30;;;;;;;-0.85;100.00;101172.75;6306916;28;20048;-89
2022/12/04 01:31:19;;;;;;;67.65;23.67;;;;;;;-0.85;100.00;101165.13;6310916;28;20043;-89
2022/12/04 01:34:20;;;;;;;63.15;23.02;;;;;;;-0.83;100.00;101168.50;6315767;28;20044;-89
2022/12/04 01:37:22;;;;;;;63.30;22.45;;;;;;;-0.81;100.00;101168.47;6305758;28;20429;-89
2022/12/04 01:40:24;;;;;;;61.05;22.08;;;;;;;-0.83;100.00;101172.75;6302189;28;20044;-89
2022/12/04 01:43:29;;;;;;;63.10;23.20;;;;;;;-0.87;100.00;101164.31;6313955;28;20031;-88
2022/12/04 01:46:30;;;;;;;69.82;23.95;;;;;;;-0.81;100.00;101165.91;6305312;27;20050;-88
2022/12/04 01:49:47;;;;;;;68.65;23.95;;;;;;;-0.87;100.00;101164.31;6307931;28;20169;-88
2022/12/04 01:52:50;;;;;;;57.78;21.33;;;;;;;-0.84;100.00;101164.28;6306569;28;20051;-88
2022/12/04 01:55:52;;;;;;;58.38;22.85;;;;;;;-0.88;100.00;101163.50;6301012;28;20051;-88
2022/12/04 01:58:57;;;;;;;61.40;23.02;;;;;;;-0.85;100.00;101167.69;6298886;28;20208;-88
2022/12/04 02:02:04;;;;;;;55.33;22.80;;;;;;;-0.88;100.00;101163.50;6300174;28;20048;-89
2022/12/04 02:05:09;;;;;;;59.60;22.25;;;;;;;-0.93;100.00;101164.47;6300200;28;20067;-88
2022/12/04 02:08:11;;;;;;;56.08;21.35;;;;;;;-0.92;100.00;101166.13;6303508;28;20047;-88
2022/12/04 02:11:35;;;;;;;52.45;19.77;;;;;;;-0.92;100.00;101159.38;6310227;28;20036;-88
2022/12/04 02:15:01;;;;;;;52.08;19.42;;;;;;;-0.89;100.00;101161.00;6311460;28;20051;-88
2022/12/04 02:18:07;;;;;;;65.63;21.92;;;;;;;-0.89;100.00;101158.47;6300762;28;20040;-88
2022/12/04 02:21:32;;;;;;;54.00;21.17;;;;;;;-0.92;100.00;101155.97;6308289;28;20040;-88
2022/12/04 02:24:51;;;;;;;65.40;23.38;;;;;;;-0.90;100.00;101156.78;6309477;28;20047;-87
2022/12/04 02:28:06;;;;;;;61.97;21.42;;;;;;;-0.87;100.00;101151.63;6307581;28;20040;-88
2022/12/04 02:31:18;;;;;;;56.30;21.30;;;;;;;-0.87;100.00;101149.94;6306806;28;20050;-88
2022/12/04 02:34:42;;;;;;;66.70;23.17;;;;;;;-0.90;100.00;101144.06;6308042;28;20044;-88
2022/12/04 02:37:49;;;;;;;57.45;20.45;;;;;;;-0.87;100.00;101144.84;6308909;28;20509;-87
2022/12/04 02:41:05;;;;;;;54.13;19.92;;;;;;;-0.82;100.00;101143.91;6306602;28;20528;-87
2022/12/04 02:44:13;;;;;;;56.13;19.40;;;;;;;-0.83;100.00;101143.06;6315405;28;20040;-88
2022/12/04 02:47:21;;;;;;;52.97;19.83;;;;;;;-0.90;100.00;101144.91;6300612;28;20039;-87
2022/12/04 02:50:23;;;;;;;55.83;19.85;;;;;;;-0.83;100.00;101148.16;6301621;28;20056;-87
2022/12/04 02:53:30;;;;;;;52.90;20.50;;;;;;;-0.86;100.00;101135.53;6308165;28;20028;-87
2022/12/04 02:56:38;;;;;;;54.78;19.73;;;;;;;-0.84;100.00;101131.25;6305696;28;20319;-87
2022/12/04 02:59:42;;;;;;;49.28;19.50;;;;;;;-0.83;100.00;101132.06;6302630;28;20040;-88
2022/12/04 03:03:15;;;;;;;50.75;20.52;;;;;;;-0.90;100.00;101133.91;6308519;28;20890;-87
2022/12/04 03:06:19;;;;;;;54.47;20.42;;;;;;;-0.87;100.00;101133.84;6303725;28;20040;-87
2022/12/04 03:09:35;;;;;;;53.33;19.60;;;;;;;-0.85;100.00;101129.56;6305263;28;20055;-87
2022/12/04 03:12:43;;;;;;;48.60;20.42;;;;;;;-0.81;100.00;101141.34;6309219;28;20043;-87
2022/12/04 03:15:57;;;;;;;52.22;18.95;;;;;;;-0.81;100.00;101138.81;6309365;28;20051;-87
2022/12/04 03:19:12;;;;;;;48.05;17.77;;;;;;;-0.87;100.00;101137.22;6306735;28;20531;-87
2022/12/04 03:22:18;;;;;;;51.75;20.13;;;;;;;-0.87;100.00;101126.22;6297895;28;20040;-87
2022/12/04 03:25:27;;;;;;;50.53;19.58;;;;;;;-0.81;100.00;101135.44;6309682;28;20043;-87
2022/12/04 03:28:39;;;;;;;48.55;18.08;;;;;;;-0.83;100.00;101140.53;6309254;28;20047;-87
2022/12/04 03:31:49;;;;;;;49.55;18.75;;;;;;;-0.81;100.00;101135.44;6308881;28;20028;-87
2022/12/04 03:35:20;;;;;;;51.72;17.58;;;;;;;-0.82;100.00;101131.19;6303788;28;20051;-87
2022/12/04 03:38:45;;;;;;;49.33;18.23;;;;;;;-0.79;100.00;101136.22;6299579;28;20348;-87
2022/12/04 03:41:53;;;;;;;44.88;16.80;;;;;;;-0.78;100.00;101130.28;6300144;28;20048;-87
2022/12/04 03:45:09;;;;;;;43.65;18.17;;;;;;;-0.77;100.00;101129.38;6301399;28;20058;-87
2022/12/04 03:48:20;;;;;;;47.30;19.08;;;;;;;-0.77;100.00;101124.31;6308097;28;20504;-87
2022/12/04 03:52:03;;;;;;;50.60;18.50;;;;;;;-0.78;100.00;101126.00;6303682;28;20116;-87
2022/12/04 03:55:44;;;;;;;43.00;18.83;;;;;;;-0.78;100.00;101118.38;6213911;28;20065;-87
2022/12/04 03:58:51;;;;;;;50.13;19.38;;;;;;;-0.76;100.00;101119.19;6133348;28;20063;-87
2022/12/04 04:01:57;;;;;;;44.28;18.75;;;;;;;-0.75;100.00;101122.56;6136490;29;20219;-87
2022/12/04 04:05:01;;;;;;;51.42;20.15;;;;;;;-0.77;100.00;101125.16;6119759;29;20065;-87
2022/12/04 04:11:40;;;;;;;51.03;19.65;;;;;;;-0.77;100.00;101130.25;6112894;29;20566;-87
2022/12/04 04:25:07;;;;;;;58.42;20.63;;;;;;;-0.73;100.00;101131.00;6138633;29;20062;-87
2022/12/04 04:28:27;;;;;;;53.97;21.10;;;;;;;-0.71;100.00;101131.81;6134201;29;20055;-87
2022/12/04 04:31:56;;;;;;;55.27;20.33;;;;;;;-0.74;100.00;101131.88;6233199;28;20047;-87
2022/12/04 04:35:38;;;;;;;52.10;20.48;;;;;;;-0.70;100.00;101130.94;6307333;28;20413;-87
2022/12/04 04:39:04;;;;;;;51.30;19.73;;;;;;;-0.70;100.00;101116.50;6260850;28;20166;-87
2022/12/04 04:42:19;;;;;;;50.53;21.23;;;;;;;-0.68;100.00;101121.56;6261318;28;20053;-87
2022/12/04 04:45:30;;;;;;;49.58;20.33;;;;;;;-0.67;100.00;101115.63;6261429;28;20094;-87
2022/12/04 04:48:40;;;;;;;59.22;23.38;;;;;;;-0.68;100.00;101122.38;6260684;28;20499;-87
2022/12/04 04:51:44;;;;;;;56.15;21.25;;;;;;;-0.66;100.00;101130.81;6253666;28;20072;-87
2022/12/04 04:54:46;;;;;;;50.17;22.25;;;;;;;-0.68;100.00;101129.19;6260696;28;20111;-87
2022/12/04 04:57:47;;;;;;;57.40;22.30;;;;;;;-0.65;100.00;101124.03;6245052;28;20052;-87
2022/12/04 05:01:04;;;;;;;54.25;20.83;;;;;;;-0.64;100.00;101122.34;6252738;28;20566;-87
2022/12/04 05:04:07;;;;;;;57.35;21.60;;;;;;;-0.61;100.00;101128.19;6258413;28;20207;-87
2022/12/04 05:07:09;;;;;;;59.42;22.60;;;;;;;-0.64;100.00;101125.72;6259941;28;20418;-87
2022/12/04 05:10:11;;;;;;;59.08;21.65;;;;;;;-0.64;100.00;101125.72;6260138;28;20041;-87
2022/12/04 05:13:14;;;;;;;58.97;23.08;;;;;;;-0.64;100.00;101135.88;6258315;28;20233;-87
2022/12/04 05:16:16;;;;;;;54.63;21.60;;;;;;;-0.61;100.00;101132.44;6304128;28;20549;-87
2022/12/04 05:22:39;;;;;;;55.03;22.25;;;;;;;-0.59;100.00;101134.06;6312915;28;20090;-87
2022/12/04 05:25:40;;;;;;;54.25;22.85;;;;;;;-0.62;100.00;101139.22;6313520;28;20043;-87
2022/12/04 05:28:42;;;;;;;57.97;22.17;;;;;;;-0.60;100.00;101134.09;6312066;28;20164;-87
2022/12/04 05:31:43;;;;;;;56.85;23.23;;;;;;;-0.58;100.00;101132.34;6313296;28;20046;-87
2022/12/04 05:34:54;;;;;;;64.28;23.40;;;;;;;-0.58;100.00;101133.19;6308943;28;20097;-87
2022/12/04 05:37:56;;;;;;;59.10;22.92;;;;;;;-0.59;100.00;101129.00;6304369;28;20301;-87
2022/12/04 05:40:59;;;;;;;58.95;23.80;;;;;;;-0.59;100.00;101134.06;6311621;28;20052;-87
2022/12/04 05:44:00;;;;;;;61.70;24.50;;;;;;;-0.58;100.00;101124.72;6319738;28;20040;-87
2022/12/04 05:47:02;;;;;;;59.92;24.67;;;;;;;-0.55;100.00;101133.09;6313434;28;20532;-87
2022/12/04 05:50:06;;;;;;;59.70;23.52;;;;;;;-0.55;100.00;101127.19;6311709;28;20516;-87
2022/12/04 05:53:07;;;;;;;59.50;23.63;;;;;;;-0.54;100.00;101123.81;6313200;28;20040;-87
2022/12/04 05:56:09;;;;;;;63.28;23.73;;;;;;;-0.54;100.00;101124.63;6312053;28;20425;-87
2022/12/04 05:59:12;;;;;;;63.22;25.08;;;;;;;-0.53;100.00;101128.84;6312859;28;20048;-87
2022/12/04 06:02:14;;;;;;;59.97;24.13;;;;;;;-0.57;100.00;101123.84;6303983;28;20052;-88
2022/12/04 06:05:16;;;;;;;55.78;23.83;;;;;;;-0.55;100.00;101125.47;6318808;28;20444;-87
2022/12/04 06:08:17;;;;;;;61.08;24.42;;;;;;;-0.51;100.00;101128.81;6319723;28;20051;-87
2022/12/04 06:11:23;;;;;;;63.83;25.02;;;;;;;-0.55;100.00;101122.13;6312026;28;20113;-87
2022/12/04 06:14:25;;;;;;;63.42;23.92;;;;;;;-0.54;100.00;101123.81;6295681;28;20036;-87
2022/12/04 06:17:27;;;;;;;60.45;24.75;;;;;;;-0.53;100.00;101125.47;6305772;28;20505;-87
2022/12/04 06:20:28;;;;;;;58.30;24.27;;;;;;;-0.50;100.00;101126.25;6312935;28;20036;-87
2022/12/04 06:23:30;;;;;;;58.63;24.25;;;;;;;-0.53;100.00;101133.09;6312171;28;20089;-87
2022/12/04 06:26:32;;;;;;;60.05;24.90;;;;;;;-0.45;100.00;101128.66;6310714;28;20413;-87
2022/12/04 06:29:34;;;;;;;52.63;23.42;;;;;;;-0.47;100.00;101130.41;6313157;28;20057;-87
2022/12/04 06:32:35;;;;;;;54.85;24.20;;;;;;;-0.48;100.00;101128.72;6310603;28;20044;-87
2022/12/04 06:35:37;;;;;;;62.90;26.33;;;;;;;-0.45;100.00;101133.72;6312427;28;20174;-87
2022/12/04 06:38:41;;;;;;;61.92;24.48;;;;;;;-0.46;100.00;101132.06;6311899;28;20131;-87
2022/12/04 06:41:43;;;;;;;56.95;23.38;;;;;;;-0.51;100.00;101124.56;6311808;28;20043;-87
2022/12/04 06:44:45;;;;;;;52.80;22.33;;;;;;;-0.48;100.00;101129.56;6325586;28;20062;-87
2022/12/04 06:47:46;;;;;;;55.55;25.90;;;;;;;-0.48;100.00;101131.28;6311274;28;20407;-87
2022/12/04 06:50:48;;;;;;;64.30;25.20;;;;;;;-0.47;100.00;101133.78;6309532;28;20043;-87
2022/12/04 06:53:50;;;;;;;64.50;26.25;;;;;;;-0.47;100.00;101138.03;6310360;28;20050;-87
2022/12/04 06:56:52;;;;;;;58.13;23.52;;;;;;;-0.44;100.00;101135.44;6311529;28;20048;-87
2022/12/04 06:59:54;;;;;;;57.33;24.42;;;;;;;-0.40;100.00;101137.00;6310739;28;20040;-87
2022/12/04 07:02:56;;;;;;;58.17;24.25;;;;;;;-0.49;100.00;101135.53;6302720;28;20998;-87
2022/12/04 07:05:57;;;;;;;58.88;24.58;;;;;;;-0.50;100.00;101140.63;6308416;28;20067;-87
2022/12/04 07:09:06;;;;;;;53.88;23.30;;;;;;;-0.47;100.00;101138.88;6304722;28;20039;-87
2022/12/04 07:12:08;;;;;;;57.40;23.33;;;;;;;-0.45;100.00;101143.91;6301668;28;20055;-87
2022/12/04 07:15:10;;;;;;;57.00;23.33;;;;;;;-0.44;100.00;101137.97;6312442;28;20470;-87
2022/12/04 07:18:11;;;;;;;58.55;23.83;;;;;;;-0.44;100.00;101135.44;6312689;28;20064;-87
2022/12/04 07:21:16;;;;;;;63.38;25.10;;;;;;;-0.44;100.00;101137.97;6306911;28;20051;-87
2022/12/04 07:24:18;;;;;;;61.15;25.70;;;;;;;-0.45;100.00;101131.19;6305685;28;20489;-87
2022/12/04 07:27:20;;;;;;;57.33;25.33;;;;;;;-0.50;100.00;101123.69;6308974;28;20316;-88
2022/12/04 07:30:22;;;;;;;60.28;23.75;;;;;;;-0.49;100.00;101135.53;6311412;28;20048;-87
2022/12/04 07:33:24;;;;;;;57.08;23.45;;;;;;;-0.47;100.00;101127.88;6307578;28;20496;-87
2022/12/04 07:36:27;;;;;;;54.97;23.42;;;;;;;-0.48;100.00;101131.28;6305166;28;20485;-87
2022/12/04 07:39:29;;;;;;;58.75;23.58;;;;;;;-0.45;100.00;101131.19;6307301;28;20490;-87
2022/12/04 07:42:31;;;;;;;56.58;24.50;;;;;;;-0.44;100.00;101133.72;6311561;28;20040;-87
2022/12/04 07:45:32;;;;;;;54.05;22.60;;;;;;;-0.44;100.00;101127.78;6301241;28;20243;-87
2022/12/04 07:48:35;;;;;;;54.25;23.48;;;;;;;-0.41;100.00;101126.88;6305133;28;20516;-87
2022/12/04 07:51:37;;;;;;;58.28;25.70;;;;;;;-0.34;100.00;101128.41;6310876;28;20048;-87
2022/12/04 07:54:39;;;;;;;61.17;24.42;;;;;;;-0.40;100.00;101126.81;6301653;28;20040;-87
2022/12/04 07:57:41;;;;;;;58.90;25.70;;;;;;;-0.42;100.00;101131.16;6315320;28;20047;-87
2022/12/04 08:00:43;;;;;;;58.47;24.50;;;;;;;-0.43;100.00;101126.91;6313827;28;20346;-87
2022/12/04 08:03:46;;;;;;;55.55;23.63;;;;;;;-0.40;100.00;101131.91;6309761;28;20028;-88
2022/12/04 08:06:49;;;;;;;53.75;22.80;;;;;;;-0.37;100.00;101133.56;6309994;28;20044;-87
2022/12/04 08:09:51;;;;;;;56.38;23.88;;;;;;;-0.40;100.00;101120.91;6310990;28;20048;-87
2022/12/04 08:12:53;;;;;;;58.63;23.35;;;;;;;-0.33;100.00;101125.81;6314418;28;20036;-87
2022/12/04 08:15:55;;;;;;;58.38;23.25;;;;;;;-0.32;100.00;101122.41;6320221;28;20139;-87
2022/12/04 08:18:58;;;;;;;59.65;24.25;;;;;;;-0.37;100.00;101128.47;6314896;28;20044;-87
2022/12/04 08:22:00;;;;;;;49.50;22.25;;;;;;;-0.32;100.00;101127.50;6313114;28;20040;-87
2022/12/04 08:25:02;;;;;;;56.58;24.08;;;;;;;-0.30;100.00;101130.00;6302175;28;20036;-88
2022/12/04 08:28:04;;;;;;;48.97;23.38;;;;;;;-0.27;100.00;101128.22;6322494;28;20040;-87
2022/12/04 08:31:12;;;;;;;52.30;24.25;;;;;;;-0.29;100.00;101134.22;6312958;28;20040;-88
2022/12/04 08:34:14;;;;;;;57.63;23.23;;;;;;;-0.29;100.00;101129.13;6311947;28;20891;-87
2022/12/04 08:37:16;;;;;;;58.65;24.10;;;;;;;-0.30;100.00;101127.44;6308960;28;20055;-87
2022/12/04 08:40:18;;;;;;;51.97;22.42;;;;;;;-0.27;100.00;101129.94;6309082;28;20050;-87
2022/12/04 08:43:20;;;;;;;61.33;26.40;;;;;;;-0.27;100.00;101130.78;6309833;28;20549;-87
2022/12/04 08:46:25;;;;;;;53.00;24.90;;;;;;;-0.25;100.00;101131.56;6299758;28;20046;-87
2022/12/04 08:49:27;;;;;;;55.72;23.65;;;;;;;-0.26;100.00;101134.16;6307183;28;20165;-87
2022/12/04 08:52:28;;;;;;;56.22;23.30;;;;;;;-0.23;100.00;101123.88;6310128;28;20067;-87
2022/12/04 08:55:30;;;;;;;55.13;24.00;;;;;;;-0.22;100.00;101130.66;6311347;28;20063;-88
2022/12/04 08:58:33;;;;;;;58.78;23.83;;;;;;;-0.23;100.00;101122.16;6320643;28;20067;-87
2022/12/04 09:01:35;;;;;;;58.13;23.58;;;;;;;-0.20;100.00;101121.25;6314087;28;20032;-87
2022/12/04 09:04:37;;;;;;;57.83;24.38;;;;;;;-0.16;100.00;101122.03;6301062;28;20048;-88
2022/12/04 09:07:38;;;;;;;59.65;23.38;;;;;;;-0.16;100.00;101129.66;6321730;28;20109;-87
2022/12/04 09:10:41;;;;;;;58.65;24.50;;;;;;;-0.15;100.00;101123.69;6308138;28;20067;-87
2022/12/04 09:13:44;;;;;;;55.88;23.70;;;;;;;-0.16;100.00;101137.31;6316604;28;20043;-87
2022/12/04 09:16:45;;;;;;;52.60;22.60;;;;;;;-0.15;100.00;101133.88;6314152;28;20044;-87
2022/12/04 09:19:47;;;;;;;59.45;25.58;;;;;;;-0.13;100.00;101132.97;6303795;28;20044;-87
2022/12/04 09:22:49;;;;;;;61.47;25.25;;;;;;;-0.11;100.00;101140.56;6308109;28;20177;-87
2022/12/04 09:26:06;;;;;;;61.45;24.60;;;;;;;-0.10;100.00;101137.13;6309920;28;20044;-87
2022/12/04 09:29:10;;;;;;;59.67;24.85;;;;;;;-0.10;100.00;101132.03;6308885;28;20052;-87
2022/12/04 09:32:12;;;;;;;62.25;25.02;;;;;;;-0.04;100.00;101129.38;6314379;28;20047;-87
2022/12/04 09:35:13;;;;;;;58.30;24.30;;;;;;;-0.07;100.00;101134.53;6311992;28;20064;-87
2022/12/04 09:38:15;;;;;;;54.70;23.30;;;;;;;-0.06;100.00;101137.03;6308661;28;20549;-87
2022/12/04 09:41:20;;;;;;;59.15;26.05;;;;;;;-0.09;100.00;101129.47;6309228;28;20465;-87
2022/12/04 09:44:39;;;;;;;55.03;24.70;;;;;;;-0.08;100.00;101130.31;6309153;28;20036;-87
2022/12/04 09:47:48;;;;;;;62.28;24.10;;;;;;;-0.05;100.00;101133.63;6302290;28;20071;-87
2022/12/04 09:50:51;;;;;;;59.00;24.48;;;;;;;-0.02;100.00;101131.00;6313668;28;20070;-87
2022/12/04 09:53:58;;;;;;;55.15;24.35;;;;;;;-0.05;100.00;101131.06;6302695;28;20048;-87
2022/12/04 09:57:07;;;;;;;62.35;25.02;;;;;;;-0.04;100.00;101137.81;6307022;28;20044;-87
2022/12/04 10:00:13;;;;;;;59.20;25.65;;;;;;;-0.03;100.00;101133.56;6309046;28;20039;-87
2022/12/04 10:03:18;;;;;;;62.72;26.10;;;;;;;0.00;100.00;101128.44;6307226;28;20043;-87
2022/12/04 10:06:20;;;;;;;64.18;26.45;;;;;;;-0.04;100.00;101117.47;6310535;28;20486;-87
2022/12/04 10:10:01;;;;;;;62.30;25.30;;;;;;;-0.01;100.00;101116.56;6308179;28;20044;-87
2022/12/04 10:13:30;;;;;;;65.85;25.80;;;;;;;-0.03;100.00;101115.75;6230083;28;20064;-86
2022/12/04 10:16:52;;;;;;;57.03;23.77;;;;;;;0.01;100.00;101116.53;6228944;28;20162;-87
2022/12/04 10:20:54;;;;;;;60.08;27.35;;;;;;;0.04;100.00;101122.34;6228614;28;20041;-87
2022/12/04 10:24:38;;;;;;;65.35;26.17;;;;;;;0.03;100.00;101119.88;6182240;28;20054;-87
2022/12/04 10:27:59;;;;;;;59.58;25.50;;;;;;;0.07;100.00;101109.56;6064384;29;20544;-87
2022/12/04 10:31:03;;;;;;;62.30;25.27;;;;;;;0.12;100.00;101111.97;6063041;29;20986;-87
2022/12/04 10:34:14;;;;;;;63.33;25.40;;;;;;;0.11;100.00;101113.69;6064442;29;20064;-87
2022/12/04 10:37:16;;;;;;;59.88;26.75;;;;;;;0.10;100.00;101116.25;6065826;29;20518;-87
2022/12/04 10:40:26;;;;;;;65.30;26.48;;;;;;;0.10;100.00;101113.72;6063130;29;20045;-87
2022/12/04 10:43:48;;;;;;;60.50;26.20;;;;;;;0.13;100.00;101104.31;6044003;29;20064;-87
2022/12/04 10:46:55;;;;;;;63.90;26.63;;;;;;;0.18;100.00;101111.84;6049299;29;20045;-86
2022/12/04 10:50:01;;;;;;;66.65;28.63;;;;;;;0.24;100.00;101118.47;6076461;29;20482;-85
2022/12/04 10:53:03;;;;;;;67.63;29.25;;;;;;;0.19;100.00;101118.59;6090976;29;20056;-86
2022/12/04 10:56:13;;;;;;;65.20;28.60;;;;;;;0.23;100.00;101120.19;6096268;28;20680;-87
2022/12/04 10:59:15;;;;;;;68.05;26.83;;;;;;;0.19;100.00;101114.31;6182801;28;20702;-87
2022/12/04 11:02:32;;;;;;;65.20;26.75;;;;;;;0.17;100.00;101105.91;6166466;28;20417;-87
2022/12/04 11:05:42;;;;;;;62.13;26.50;;;;;;;0.17;100.00;101105.06;6298278;28;20527;-87
2022/12/04 11:08:49;;;;;;;61.38;25.80;;;;;;;0.20;100.00;101105.00;6312419;28;20495;-87
2022/12/04 11:11:51;;;;;;;68.78;25.98;;;;;;;0.20;100.00;101100.72;6309081;28;20040;-87
2022/12/04 11:15:05;;;;;;;67.15;27.88;;;;;;;0.22;100.00;101095.59;6313321;28;20089;-87
2022/12/04 11:18:09;;;;;;;63.55;25.27;;;;;;;0.24;100.00;101087.91;6307894;28;20048;-87
2022/12/04 11:21:28;;;;;;;67.35;28.35;;;;;;;0.30;100.00;101080.09;6310378;28;20314;-87
2022/12/04 11:24:39;;;;;;;62.67;27.10;;;;;;;0.33;100.00;101080.88;6311628;28;20212;-87
2022/12/04 11:27:52;;;;;;;65.60;27.33;;;;;;;0.30;100.00;101070.78;6308053;28;20468;-87
2022/12/04 11:30:57;;;;;;;63.90;26.00;;;;;;;0.34;100.00;101076.59;6314852;28;20055;-87
2022/12/04 11:34:04;;;;;;;63.33;25.50;;;;;;;0.32;100.00;101075.81;6314340;28;20047;-87
2022/12/04 11:37:18;;;;;;;56.55;25.65;;;;;;;0.34;100.00;101071.50;6321829;28;20047;-87
2022/12/04 11:40:21;;;;;;;60.80;25.63;;;;;;;0.32;100.00;101071.53;6307803;28;20653;-87
2022/12/04 11:43:26;;;;;;;64.15;25.35;;;;;;;0.31;100.00;101072.44;6308490;28;20113;-87
2022/12/04 11:46:30;;;;;;;63.75;25.48;;;;;;;0.34;100.00;101079.16;6311551;28;20510;-87
2022/12/04 11:49:32;;;;;;;61.42;24.80;;;;;;;0.31;100.00;101067.34;6310715;28;20044;-87
2022/12/04 11:52:57;;;;;;;59.38;25.48;;;;;;;0.27;100.00;101070.84;6321162;28;20067;-87
2022/12/04 11:56:15;;;;;;;55.13;25.52;;;;;;;0.35;100.00;101073.19;6308363;28;20391;-87
2022/12/04 11:59:55;;;;;;;58.05;23.77;;;;;;;0.28;100.00;101075.06;6308875;28;20044;-87
2022/12/04 12:03:30;;;;;;;55.63;24.20;;;;;;;0.27;100.00;101070.00;6308319;28;20052;-87
2022/12/04 12:06:36;;;;;;;61.20;24.75;;;;;;;0.26;100.00;101069.19;6309214;28;20089;-87
2022/12/04 12:09:45;;;;;;;58.42;24.60;;;;;;;0.24;100.00;101067.56;6312336;28;20055;-87
2022/12/04 12:13:16;;;;;;;62.72;25.17;;;;;;;0.24;100.00;101070.09;6306884;28;20051;-87
2022/12/04 12:16:44;;;;;;;62.25;24.88;;;;;;;0.27;100.00;101062.38;6323100;28;20044;-87
2022/12/04 12:20:14;;;;;;;61.38;24.55;;;;;;;0.30;100.00;101064.81;6310297;28;20524;-87
2022/12/04 12:23:34;;;;;;;57.55;24.92;;;;;;;0.35;100.00;101073.19;6313523;28;20125;-87
2022/12/04 12:27:17;;;;;;;62.90;24.92;;;;;;;0.34;100.00;101067.25;6313628;28;20185;-87
2022/12/04 12:30:21;;;;;;;58.38;22.60;;;;;;;0.35;100.00;101065.56;6311341;28;20048;-87
2022/12/04 12:33:27;;;;;;;61.10;24.48;;;;;;;0.35;100.00;101057.91;6313907;28;20046;-87
2022/12/04 12:36:35;;;;;;;55.70;22.63;;;;;;;0.29;100.00;101071.63;6314728;28;20033;-87
2022/12/04 12:39:49;;;;;;;57.38;25.13;;;;;;;0.33;100.00;101057.13;6320031;28;20039;-87
2022/12/04 12:43:08;;;;;;;61.90;24.58;;;;;;;0.27;100.00;101047.91;6309469;28;20036;-87
2022/12/04 12:46:29;;;;;;;58.85;23.95;;;;;;;0.25;100.00;101047.16;6305717;28;20082;-87
2022/12/04 12:49:38;;;;;;;63.80;25.05;;;;;;;0.28;100.00;101036.03;6312487;28;20079;-87
2022/12/04 12:52:57;;;;;;;56.58;24.70;;;;;;;0.25;100.00;101036.13;6314641;28;20058;-87
2022/12/04 12:56:02;;;;;;;56.22;25.05;;;;;;;0.23;100.00;101033.63;6311497;28;20047;-87
2022/12/04 12:59:11;;;;;;;55.42;24.17;;;;;;;0.26;100.00;101038.63;6308492;28;20040;-86
2022/12/04 13:02:34;;;;;;;50.25;22.52;;;;;;;0.21;100.00;101026.03;6312886;28;20039;-86
2022/12/04 13:05:45;;;;;;;55.70;23.42;;;;;;;0.21;100.00;101025.19;6313069;28;20036;-86
2022/12/04 13:09:11;;;;;;;54.78;22.38;;;;;;;0.24;100.00;101016.63;6308951;28;20032;-86
2022/12/04 13:12:15;;;;;;;55.65;23.40;;;;;;;0.25;100.00;101025.94;6310736;28;20044;-86
2022/12/04 13:15:23;;;;;;;56.47;22.35;;;;;;;0.24;100.00;101009.00;6320374;28;20381;-86
2022/12/04 13:18:55;;;;;;;58.83;23.38;;;;;;;0.23;100.00;101008.16;6307906;28;20536;-86
2022/12/04 13:22:18;;;;;;;54.15;23.70;;;;;;;0.23;100.00;101012.44;6304532;28;20052;-86
2022/12/04 13:25:45;;;;;;;58.30;23.42;;;;;;;0.22;100.00;101019.22;6300684;28;20438;-86
2022/12/04 13:28:53;;;;;;;57.50;23.30;;;;;;;0.21;100.00;101007.38;6297170;28;20074;-87
2022/12/04 13:32:21;;;;;;;50.38;23.33;;;;;;;0.21;100.00;101004.81;6300994;28;20171;-86
2022/12/04 13:36:01;;;;;;;51.38;21.92;;;;;;;0.20;100.00;101011.63;6299530;28;20651;-86
2022/12/04 13:39:25;;;;;;;56.40;21.98;;;;;;;0.16;100.00;101007.50;6304127;28;20643;-86
2022/12/04 13:42:28;;;;;;;52.50;22.80;;;;;;;0.23;100.00;101002.25;6283018;28;20273;-86
2022/12/04 13:45:32;;;;;;;54.70;22.60;;;;;;;0.15;100.00;100999.91;6300517;28;21194;-87
2022/12/04 13:48:41;;;;;;;58.70;22.55;;;;;;;0.17;100.00;101003.22;6297424;28;20040;-87
2022/12/04 13:51:45;;;;;;;51.80;23.52;;;;;;;0.20;100.00;100998.09;6285879;28;20051;-87
2022/12/04 13:54:59;;;;;;;51.78;22.80;;;;;;;0.16;100.00;100991.41;6294217;28;20067;-86
2022/12/04 13:58:22;;;;;;;49.78;22.23;;;;;;;0.13;100.00;100987.22;6304913;28;20138;-87
2022/12/04 14:01:34;;;;;;;58.65;22.85;;;;;;;0.15;100.00;100990.56;6256096;28;20604;-87
2022/12/04 14:04:44;;;;;;;49.45;22.88;;;;;;;0.12;100.00;100990.63;6254669;28;20078;-87
2022/12/04 14:08:18;;;;;;;55.55;22.38;;;;;;;0.15;100.00;100982.06;6257141;28;20087;-87
2022/12/04 14:11:22;;;;;;;54.65;21.17;;;;;;;0.11;100.00;100973.72;6157643;28;20079;-87
2022/12/04 14:14:51;;;;;;;54.50;24.55;;;;;;;0.13;100.00;100966.88;6158912;28;20133;-87
2022/12/04 14:18:08;;;;;;;59.22;23.10;;;;;;;0.13;100.00;100961.78;6153619;28;20437;-87
2022/12/04 14:21:10;;;;;;;62.85;24.70;;;;;;;0.13;100.00;100961.78;6159623;28;20449;-87
2022/12/04 14:24:33;;;;;;;57.92;24.08;;;;;;;0.15;100.00;100961.72;6160258;28;20051;-87
2022/12/04 14:27:44;;;;;;;55.25;23.10;;;;;;;0.17;100.00;100960.81;6158799;28;20063;-87
2022/12/04 14:31:08;;;;;;;48.95;20.55;;;;;;;0.21;100.00;100959.84;6140423;28;20572;-87